<?xml version="1.0" encoding="UTF-8" standalone="no" ?>
<gpx xmlns="http://www.topografix.com/GPX/1/1" xmlns:xsi="http://www.w3.org/2001/XMLSchema-instance" xsi:schemaLocation="http://www.topografix.com/GPX/1/1 http://www.topografix.com/GPX/1/1/gpx.xsd" version="1.1" creator="VisuGPX - https://www.visugpx.com">
  <metadata>
    <name>Puivers-Tarascon_sur_Ariege_Circuit Route</name>
    <desc><![CDATA[Ballade sur route]]></desc>
  </metadata>
  <trk>
    <name><![CDATA[ACTIVE LOG: 20 DEC 2012 10:11]]></name>
    <trkseg>
      <trkpt lat="42.90378" lon="2.06073">
        <ele>525.98</ele>
        <time>2012-12-20T09:11:46Z</time>
      </trkpt>
      <trkpt lat="42.9038" lon="2.06073">
        <ele>526.94</ele>
        <time>2012-12-20T09:13:00Z</time>
      </trkpt>
      <trkpt lat="42.90388" lon="2.0606">
        <ele>527.42</ele>
        <time>2012-12-20T09:13:10Z</time>
      </trkpt>
      <trkpt lat="42.90392" lon="2.06058">
        <ele>527.42</ele>
        <time>2012-12-20T09:13:12Z</time>
      </trkpt>
      <trkpt lat="42.90404" lon="2.06057">
        <ele>527.9</ele>
        <time>2012-12-20T09:13:17Z</time>
      </trkpt>
      <trkpt lat="42.90431" lon="2.06065">
        <ele>526.46</ele>
        <time>2012-12-20T09:13:23Z</time>
      </trkpt>
      <trkpt lat="42.9048" lon="2.06063">
        <ele>523.09</ele>
        <time>2012-12-20T09:13:30Z</time>
      </trkpt>
      <trkpt lat="42.90512" lon="2.06069">
        <ele>520.21</ele>
        <time>2012-12-20T09:13:34Z</time>
      </trkpt>
      <trkpt lat="42.90546" lon="2.0608">
        <ele>516.37</ele>
        <time>2012-12-20T09:13:38Z</time>
      </trkpt>
      <trkpt lat="42.90592" lon="2.06096">
        <ele>513</ele>
        <time>2012-12-20T09:13:44Z</time>
      </trkpt>
      <trkpt lat="42.90599" lon="2.06098">
        <ele>512.52</ele>
        <time>2012-12-20T09:13:45Z</time>
      </trkpt>
      <trkpt lat="42.90626" lon="2.06087">
        <ele>511.56</ele>
        <time>2012-12-20T09:13:50Z</time>
      </trkpt>
      <trkpt lat="42.90686" lon="2.05999">
        <ele>510.12</ele>
        <time>2012-12-20T09:14:06Z</time>
      </trkpt>
      <trkpt lat="42.90723" lon="2.05994">
        <ele>508.67</ele>
        <time>2012-12-20T09:14:12Z</time>
      </trkpt>
      <trkpt lat="42.90825" lon="2.06064">
        <ele>511.08</ele>
        <time>2012-12-20T09:14:33Z</time>
      </trkpt>
      <trkpt lat="42.90874" lon="2.06141">
        <ele>511.08</ele>
        <time>2012-12-20T09:14:48Z</time>
      </trkpt>
      <trkpt lat="42.90898" lon="2.06135">
        <ele>510.12</ele>
        <time>2012-12-20T09:14:53Z</time>
      </trkpt>
      <trkpt lat="42.90924" lon="2.06082">
        <ele>508.19</ele>
        <time>2012-12-20T09:15:00Z</time>
      </trkpt>
      <trkpt lat="42.90931" lon="2.06033">
        <ele>506.75</ele>
        <time>2012-12-20T09:15:05Z</time>
      </trkpt>
      <trkpt lat="42.90926" lon="2.05903">
        <ele>502.91</ele>
        <time>2012-12-20T09:15:17Z</time>
      </trkpt>
      <trkpt lat="42.90924" lon="2.05814">
        <ele>500.02</ele>
        <time>2012-12-20T09:15:25Z</time>
      </trkpt>
      <trkpt lat="42.90923" lon="2.05803">
        <ele>499.54</ele>
        <time>2012-12-20T09:15:26Z</time>
      </trkpt>
      <trkpt lat="42.90944" lon="2.05745">
        <ele>497.62</ele>
        <time>2012-12-20T09:15:32Z</time>
      </trkpt>
      <trkpt lat="42.9104" lon="2.05618">
        <ele>494.74</ele>
        <time>2012-12-20T09:15:49Z</time>
      </trkpt>
      <trkpt lat="42.91172" lon="2.0544">
        <ele>491.85</ele>
        <time>2012-12-20T09:16:13Z</time>
      </trkpt>
      <trkpt lat="42.91295" lon="2.05309">
        <ele>488.49</ele>
        <time>2012-12-20T09:16:34Z</time>
      </trkpt>
      <trkpt lat="42.91417" lon="2.05136">
        <ele>485.6</ele>
        <time>2012-12-20T09:16:58Z</time>
      </trkpt>
      <trkpt lat="42.91425" lon="2.0512">
        <ele>485.6</ele>
        <time>2012-12-20T09:17:00Z</time>
      </trkpt>
      <trkpt lat="42.91505" lon="2.05047">
        <ele>483.68</ele>
        <time>2012-12-20T09:17:14Z</time>
      </trkpt>
      <trkpt lat="42.91555" lon="2.05019">
        <ele>483.2</ele>
        <time>2012-12-20T09:17:22Z</time>
      </trkpt>
      <trkpt lat="42.91593" lon="2.05012">
        <ele>482.72</ele>
        <time>2012-12-20T09:17:28Z</time>
      </trkpt>
      <trkpt lat="42.91619" lon="2.05015">
        <ele>482.72</ele>
        <time>2012-12-20T09:17:32Z</time>
      </trkpt>
      <trkpt lat="42.91643" lon="2.05011">
        <ele>482.24</ele>
        <time>2012-12-20T09:17:36Z</time>
      </trkpt>
      <trkpt lat="42.91715" lon="2.04996">
        <ele>482.72</ele>
        <time>2012-12-20T09:17:49Z</time>
      </trkpt>
      <trkpt lat="42.91742" lon="2.0497">
        <ele>483.2</ele>
        <time>2012-12-20T09:17:56Z</time>
      </trkpt>
      <trkpt lat="42.91766" lon="2.04909">
        <ele>485.6</ele>
        <time>2012-12-20T09:18:11Z</time>
      </trkpt>
      <trkpt lat="42.91787" lon="2.04855">
        <ele>487.05</ele>
        <time>2012-12-20T09:18:25Z</time>
      </trkpt>
      <trkpt lat="42.91802" lon="2.04847">
        <ele>487.53</ele>
        <time>2012-12-20T09:18:29Z</time>
      </trkpt>
      <trkpt lat="42.91855" lon="2.04848">
        <ele>489.45</ele>
        <time>2012-12-20T09:18:46Z</time>
      </trkpt>
      <trkpt lat="42.91901" lon="2.04853">
        <ele>492.81</ele>
        <time>2012-12-20T09:19:04Z</time>
      </trkpt>
      <trkpt lat="42.91906" lon="2.04855">
        <ele>492.81</ele>
        <time>2012-12-20T09:19:06Z</time>
      </trkpt>
      <trkpt lat="42.91952" lon="2.04869">
        <ele>493.77</ele>
        <time>2012-12-20T09:19:20Z</time>
      </trkpt>
      <trkpt lat="42.91986" lon="2.04868">
        <ele>493.29</ele>
        <time>2012-12-20T09:19:27Z</time>
      </trkpt>
      <trkpt lat="42.92001" lon="2.04865">
        <ele>492.81</ele>
        <time>2012-12-20T09:19:30Z</time>
      </trkpt>
      <trkpt lat="42.92015" lon="2.04858">
        <ele>492.81</ele>
        <time>2012-12-20T09:19:33Z</time>
      </trkpt>
      <trkpt lat="42.92041" lon="2.04815">
        <ele>492.33</ele>
        <time>2012-12-20T09:19:41Z</time>
      </trkpt>
      <trkpt lat="42.92083" lon="2.04663">
        <ele>490.89</ele>
        <time>2012-12-20T09:20:03Z</time>
      </trkpt>
      <trkpt lat="42.92084" lon="2.04629">
        <ele>491.37</ele>
        <time>2012-12-20T09:20:09Z</time>
      </trkpt>
      <trkpt lat="42.92068" lon="2.04551">
        <ele>494.26</ele>
        <time>2012-12-20T09:20:31Z</time>
      </trkpt>
      <trkpt lat="42.92061" lon="2.04477">
        <ele>497.14</ele>
        <time>2012-12-20T09:20:54Z</time>
      </trkpt>
      <trkpt lat="42.9208" lon="2.04442">
        <ele>499.06</ele>
        <time>2012-12-20T09:21:08Z</time>
      </trkpt>
      <trkpt lat="42.92115" lon="2.04441">
        <ele>502.43</ele>
        <time>2012-12-20T09:21:25Z</time>
      </trkpt>
      <trkpt lat="42.92142" lon="2.04492">
        <ele>504.35</ele>
        <time>2012-12-20T09:21:45Z</time>
      </trkpt>
      <trkpt lat="42.92179" lon="2.04584">
        <ele>506.27</ele>
        <time>2012-12-20T09:22:16Z</time>
      </trkpt>
      <trkpt lat="42.92181" lon="2.04586">
        <ele>506.27</ele>
        <time>2012-12-20T09:22:17Z</time>
      </trkpt>
      <trkpt lat="42.92229" lon="2.04582">
        <ele>508.67</ele>
        <time>2012-12-20T09:22:39Z</time>
      </trkpt>
      <trkpt lat="42.92279" lon="2.04535">
        <ele>512.04</ele>
        <time>2012-12-20T09:23:05Z</time>
      </trkpt>
      <trkpt lat="42.92319" lon="2.04475">
        <ele>514.92</ele>
        <time>2012-12-20T09:23:31Z</time>
      </trkpt>
      <trkpt lat="42.92344" lon="2.04413">
        <ele>517.81</ele>
        <time>2012-12-20T09:23:53Z</time>
      </trkpt>
      <trkpt lat="42.92347" lon="2.04333">
        <ele>521.17</ele>
        <time>2012-12-20T09:24:18Z</time>
      </trkpt>
      <trkpt lat="42.92322" lon="2.04252">
        <ele>524.06</ele>
        <time>2012-12-20T09:24:47Z</time>
      </trkpt>
      <trkpt lat="42.92262" lon="2.04233">
        <ele>527.42</ele>
        <time>2012-12-20T09:25:14Z</time>
      </trkpt>
      <trkpt lat="42.92201" lon="2.04216">
        <ele>530.3</ele>
        <time>2012-12-20T09:25:41Z</time>
      </trkpt>
      <trkpt lat="42.92157" lon="2.04187">
        <ele>533.67</ele>
        <time>2012-12-20T09:26:03Z</time>
      </trkpt>
      <trkpt lat="42.92099" lon="2.04166">
        <ele>536.55</ele>
        <time>2012-12-20T09:26:29Z</time>
      </trkpt>
      <trkpt lat="42.92044" lon="2.04162">
        <ele>539.44</ele>
        <time>2012-12-20T09:26:53Z</time>
      </trkpt>
      <trkpt lat="42.91982" lon="2.04171">
        <ele>542.8</ele>
        <time>2012-12-20T09:27:22Z</time>
      </trkpt>
      <trkpt lat="42.91931" lon="2.0417">
        <ele>545.69</ele>
        <time>2012-12-20T09:27:44Z</time>
      </trkpt>
      <trkpt lat="42.9188" lon="2.04198">
        <ele>548.57</ele>
        <time>2012-12-20T09:28:08Z</time>
      </trkpt>
      <trkpt lat="42.91829" lon="2.04195">
        <ele>550.97</ele>
        <time>2012-12-20T09:28:29Z</time>
      </trkpt>
      <trkpt lat="42.91807" lon="2.04145">
        <ele>553.38</ele>
        <time>2012-12-20T09:28:49Z</time>
      </trkpt>
      <trkpt lat="42.9181" lon="2.04078">
        <ele>556.26</ele>
        <time>2012-12-20T09:29:08Z</time>
      </trkpt>
      <trkpt lat="42.91817" lon="2.03997">
        <ele>559.14</ele>
        <time>2012-12-20T09:29:33Z</time>
      </trkpt>
      <trkpt lat="42.91825" lon="2.03921">
        <ele>562.51</ele>
        <time>2012-12-20T09:29:57Z</time>
      </trkpt>
      <trkpt lat="42.91818" lon="2.03853">
        <ele>565.39</ele>
        <time>2012-12-20T09:30:18Z</time>
      </trkpt>
      <trkpt lat="42.91785" lon="2.03804">
        <ele>568.28</ele>
        <time>2012-12-20T09:30:40Z</time>
      </trkpt>
      <trkpt lat="42.91751" lon="2.03742">
        <ele>571.64</ele>
        <time>2012-12-20T09:31:03Z</time>
      </trkpt>
      <trkpt lat="42.91722" lon="2.03661">
        <ele>574.53</ele>
        <time>2012-12-20T09:31:30Z</time>
      </trkpt>
      <trkpt lat="42.91702" lon="2.036">
        <ele>577.41</ele>
        <time>2012-12-20T09:31:50Z</time>
      </trkpt>
      <trkpt lat="42.91678" lon="2.03532">
        <ele>580.77</ele>
        <time>2012-12-20T09:32:13Z</time>
      </trkpt>
      <trkpt lat="42.91641" lon="2.03468">
        <ele>583.66</ele>
        <time>2012-12-20T09:32:38Z</time>
      </trkpt>
      <trkpt lat="42.91604" lon="2.03415">
        <ele>587.02</ele>
        <time>2012-12-20T09:33:00Z</time>
      </trkpt>
      <trkpt lat="42.91551" lon="2.03366">
        <ele>589.91</ele>
        <time>2012-12-20T09:33:26Z</time>
      </trkpt>
      <trkpt lat="42.91525" lon="2.03306">
        <ele>592.79</ele>
        <time>2012-12-20T09:33:47Z</time>
      </trkpt>
      <trkpt lat="42.91482" lon="2.0324">
        <ele>596.15</ele>
        <time>2012-12-20T09:34:13Z</time>
      </trkpt>
      <trkpt lat="42.91455" lon="2.03176">
        <ele>599.04</ele>
        <time>2012-12-20T09:34:35Z</time>
      </trkpt>
      <trkpt lat="42.91436" lon="2.0309">
        <ele>602.4</ele>
        <time>2012-12-20T09:35:02Z</time>
      </trkpt>
      <trkpt lat="42.91436" lon="2.03016">
        <ele>605.29</ele>
        <time>2012-12-20T09:35:24Z</time>
      </trkpt>
      <trkpt lat="42.91413" lon="2.02976">
        <ele>607.21</ele>
        <time>2012-12-20T09:35:39Z</time>
      </trkpt>
      <trkpt lat="42.91373" lon="2.02925">
        <ele>610.57</ele>
        <time>2012-12-20T09:36:02Z</time>
      </trkpt>
      <trkpt lat="42.91356" lon="2.02863">
        <ele>613.46</ele>
        <time>2012-12-20T09:36:21Z</time>
      </trkpt>
      <trkpt lat="42.91321" lon="2.02783">
        <ele>616.34</ele>
        <time>2012-12-20T09:36:50Z</time>
      </trkpt>
      <trkpt lat="42.91331" lon="2.02735">
        <ele>618.75</ele>
        <time>2012-12-20T09:37:05Z</time>
      </trkpt>
      <trkpt lat="42.91328" lon="2.02689">
        <ele>620.19</ele>
        <time>2012-12-20T09:37:20Z</time>
      </trkpt>
      <trkpt lat="42.91299" lon="2.02622">
        <ele>623.55</ele>
        <time>2012-12-20T09:37:44Z</time>
      </trkpt>
      <trkpt lat="42.91246" lon="2.02541">
        <ele>626.44</ele>
        <time>2012-12-20T09:38:17Z</time>
      </trkpt>
      <trkpt lat="42.91206" lon="2.02472">
        <ele>629.8</ele>
        <time>2012-12-20T09:38:44Z</time>
      </trkpt>
      <trkpt lat="42.9116" lon="2.02462">
        <ele>632.68</ele>
        <time>2012-12-20T09:39:03Z</time>
      </trkpt>
      <trkpt lat="42.91139" lon="2.02408">
        <ele>635.57</ele>
        <time>2012-12-20T09:39:21Z</time>
      </trkpt>
      <trkpt lat="42.91118" lon="2.02344">
        <ele>638.45</ele>
        <time>2012-12-20T09:39:42Z</time>
      </trkpt>
      <trkpt lat="42.91097" lon="2.02282">
        <ele>641.82</ele>
        <time>2012-12-20T09:40:03Z</time>
      </trkpt>
      <trkpt lat="42.91069" lon="2.02222">
        <ele>644.7</ele>
        <time>2012-12-20T09:40:25Z</time>
      </trkpt>
      <trkpt lat="42.91033" lon="2.02163">
        <ele>647.59</ele>
        <time>2012-12-20T09:40:48Z</time>
      </trkpt>
      <trkpt lat="42.90987" lon="2.02113">
        <ele>650.47</ele>
        <time>2012-12-20T09:41:12Z</time>
      </trkpt>
      <trkpt lat="42.90954" lon="2.02069">
        <ele>652.87</ele>
        <time>2012-12-20T09:41:32Z</time>
      </trkpt>
      <trkpt lat="42.90921" lon="2.02011">
        <ele>656.24</ele>
        <time>2012-12-20T09:41:54Z</time>
      </trkpt>
      <trkpt lat="42.90927" lon="2.01955">
        <ele>658.64</ele>
        <time>2012-12-20T09:42:11Z</time>
      </trkpt>
      <trkpt lat="42.90933" lon="2.01887">
        <ele>660.08</ele>
        <time>2012-12-20T09:42:29Z</time>
      </trkpt>
      <trkpt lat="42.90927" lon="2.01847">
        <ele>659.6</ele>
        <time>2012-12-20T09:42:36Z</time>
      </trkpt>
      <trkpt lat="42.9093" lon="2.0182">
        <ele>659.12</ele>
        <time>2012-12-20T09:42:40Z</time>
      </trkpt>
      <trkpt lat="42.90962" lon="2.01762">
        <ele>658.16</ele>
        <time>2012-12-20T09:42:50Z</time>
      </trkpt>
      <trkpt lat="42.90973" lon="2.01725">
        <ele>658.16</ele>
        <time>2012-12-20T09:42:55Z</time>
      </trkpt>
      <trkpt lat="42.9097" lon="2.01677">
        <ele>657.68</ele>
        <time>2012-12-20T09:43:01Z</time>
      </trkpt>
      <trkpt lat="42.90972" lon="2.01631">
        <ele>656.72</ele>
        <time>2012-12-20T09:43:07Z</time>
      </trkpt>
      <trkpt lat="42.90973" lon="2.0159">
        <ele>656.24</ele>
        <time>2012-12-20T09:43:12Z</time>
      </trkpt>
      <trkpt lat="42.90971" lon="2.0154">
        <ele>656.24</ele>
        <time>2012-12-20T09:43:18Z</time>
      </trkpt>
      <trkpt lat="42.90988" lon="2.01387">
        <ele>653.83</ele>
        <time>2012-12-20T09:43:36Z</time>
      </trkpt>
      <trkpt lat="42.90999" lon="2.01264">
        <ele>651.91</ele>
        <time>2012-12-20T09:43:50Z</time>
      </trkpt>
      <trkpt lat="42.91009" lon="2.01181">
        <ele>650.95</ele>
        <time>2012-12-20T09:44:00Z</time>
      </trkpt>
      <trkpt lat="42.91009" lon="2.01148">
        <ele>650.95</ele>
        <time>2012-12-20T09:44:04Z</time>
      </trkpt>
      <trkpt lat="42.91004" lon="2.01125">
        <ele>650.47</ele>
        <time>2012-12-20T09:44:07Z</time>
      </trkpt>
      <trkpt lat="42.91" lon="2.01102">
        <ele>649.51</ele>
        <time>2012-12-20T09:44:10Z</time>
      </trkpt>
      <trkpt lat="42.90997" lon="2.01049">
        <ele>648.55</ele>
        <time>2012-12-20T09:44:16Z</time>
      </trkpt>
      <trkpt lat="42.90987" lon="2.0102">
        <ele>648.07</ele>
        <time>2012-12-20T09:44:20Z</time>
      </trkpt>
      <trkpt lat="42.90932" lon="2.00913">
        <ele>646.62</ele>
        <time>2012-12-20T09:44:36Z</time>
      </trkpt>
      <trkpt lat="42.90928" lon="2.00858">
        <ele>646.62</ele>
        <time>2012-12-20T09:44:43Z</time>
      </trkpt>
      <trkpt lat="42.90943" lon="2.00797">
        <ele>644.7</ele>
        <time>2012-12-20T09:44:50Z</time>
      </trkpt>
      <trkpt lat="42.90969" lon="2.00747">
        <ele>643.74</ele>
        <time>2012-12-20T09:44:57Z</time>
      </trkpt>
      <trkpt lat="42.90993" lon="2.00609">
        <ele>641.82</ele>
        <time>2012-12-20T09:45:13Z</time>
      </trkpt>
      <trkpt lat="42.90997" lon="2.00514">
        <ele>640.38</ele>
        <time>2012-12-20T09:45:24Z</time>
      </trkpt>
      <trkpt lat="42.91013" lon="2.00421">
        <ele>638.93</ele>
        <time>2012-12-20T09:45:35Z</time>
      </trkpt>
      <trkpt lat="42.91012" lon="2.00371">
        <ele>638.45</ele>
        <time>2012-12-20T09:45:41Z</time>
      </trkpt>
      <trkpt lat="42.91016" lon="2.00329">
        <ele>637.97</ele>
        <time>2012-12-20T09:45:46Z</time>
      </trkpt>
      <trkpt lat="42.91032" lon="2.00267">
        <ele>637.01</ele>
        <time>2012-12-20T09:45:54Z</time>
      </trkpt>
      <trkpt lat="42.91034" lon="2.00251">
        <ele>637.01</ele>
        <time>2012-12-20T09:45:56Z</time>
      </trkpt>
      <trkpt lat="42.9103" lon="2.0022">
        <ele>636.53</ele>
        <time>2012-12-20T09:46:00Z</time>
      </trkpt>
      <trkpt lat="42.91022" lon="2.00196">
        <ele>636.05</ele>
        <time>2012-12-20T09:46:03Z</time>
      </trkpt>
      <trkpt lat="42.91036" lon="2.00147">
        <ele>635.09</ele>
        <time>2012-12-20T09:46:10Z</time>
      </trkpt>
      <trkpt lat="42.91068" lon="2.00047">
        <ele>633.65</ele>
        <time>2012-12-20T09:46:24Z</time>
      </trkpt>
      <trkpt lat="42.91077" lon="1.99873">
        <ele>631.24</ele>
        <time>2012-12-20T09:46:44Z</time>
      </trkpt>
      <trkpt lat="42.91076" lon="1.99776">
        <ele>629.8</ele>
        <time>2012-12-20T09:46:55Z</time>
      </trkpt>
      <trkpt lat="42.91092" lon="1.9972">
        <ele>628.84</ele>
        <time>2012-12-20T09:47:02Z</time>
      </trkpt>
      <trkpt lat="42.91143" lon="1.99604">
        <ele>627.4</ele>
        <time>2012-12-20T09:47:18Z</time>
      </trkpt>
      <trkpt lat="42.9117" lon="1.99449">
        <ele>624.99</ele>
        <time>2012-12-20T09:47:36Z</time>
      </trkpt>
      <trkpt lat="42.91177" lon="1.99394">
        <ele>624.03</ele>
        <time>2012-12-20T09:47:43Z</time>
      </trkpt>
      <trkpt lat="42.91187" lon="1.99269">
        <ele>622.59</ele>
        <time>2012-12-20T09:47:57Z</time>
      </trkpt>
      <trkpt lat="42.91173" lon="1.99145">
        <ele>620.67</ele>
        <time>2012-12-20T09:48:11Z</time>
      </trkpt>
      <trkpt lat="42.9117" lon="1.99017">
        <ele>618.75</ele>
        <time>2012-12-20T09:48:25Z</time>
      </trkpt>
      <trkpt lat="42.91159" lon="1.9886">
        <ele>616.82</ele>
        <time>2012-12-20T09:48:42Z</time>
      </trkpt>
      <trkpt lat="42.9115" lon="1.98713">
        <ele>615.86</ele>
        <time>2012-12-20T09:48:59Z</time>
      </trkpt>
      <trkpt lat="42.91131" lon="1.98535">
        <ele>614.9</ele>
        <time>2012-12-20T09:49:20Z</time>
      </trkpt>
      <trkpt lat="42.91118" lon="1.98353">
        <ele>613.94</ele>
        <time>2012-12-20T09:49:42Z</time>
      </trkpt>
      <trkpt lat="42.91108" lon="1.98219">
        <ele>613.46</ele>
        <time>2012-12-20T09:49:59Z</time>
      </trkpt>
      <trkpt lat="42.91107" lon="1.98196">
        <ele>613.46</ele>
        <time>2012-12-20T09:50:02Z</time>
      </trkpt>
      <trkpt lat="42.911" lon="1.98149">
        <ele>613.46</ele>
        <time>2012-12-20T09:50:08Z</time>
      </trkpt>
      <trkpt lat="42.91085" lon="1.98118">
        <ele>612.98</ele>
        <time>2012-12-20T09:50:13Z</time>
      </trkpt>
      <trkpt lat="42.91064" lon="1.98056">
        <ele>612.02</ele>
        <time>2012-12-20T09:50:21Z</time>
      </trkpt>
      <trkpt lat="42.91075" lon="1.98021">
        <ele>611.06</ele>
        <time>2012-12-20T09:50:25Z</time>
      </trkpt>
      <trkpt lat="42.9109" lon="1.97998">
        <ele>610.57</ele>
        <time>2012-12-20T09:50:28Z</time>
      </trkpt>
      <trkpt lat="42.91101" lon="1.979">
        <ele>608.65</ele>
        <time>2012-12-20T09:50:38Z</time>
      </trkpt>
      <trkpt lat="42.91106" lon="1.97777">
        <ele>605.29</ele>
        <time>2012-12-20T09:50:50Z</time>
      </trkpt>
      <trkpt lat="42.91105" lon="1.97727">
        <ele>604.33</ele>
        <time>2012-12-20T09:50:55Z</time>
      </trkpt>
      <trkpt lat="42.911" lon="1.97698">
        <ele>603.36</ele>
        <time>2012-12-20T09:50:58Z</time>
      </trkpt>
      <trkpt lat="42.91077" lon="1.97663">
        <ele>601.92</ele>
        <time>2012-12-20T09:51:03Z</time>
      </trkpt>
      <trkpt lat="42.91054" lon="1.97555">
        <ele>599.04</ele>
        <time>2012-12-20T09:51:15Z</time>
      </trkpt>
      <trkpt lat="42.9105" lon="1.97432">
        <ele>597.12</ele>
        <time>2012-12-20T09:51:27Z</time>
      </trkpt>
      <trkpt lat="42.91074" lon="1.97309">
        <ele>597.12</ele>
        <time>2012-12-20T09:51:43Z</time>
      </trkpt>
      <trkpt lat="42.91109" lon="1.97141">
        <ele>595.67</ele>
        <time>2012-12-20T09:52:05Z</time>
      </trkpt>
      <trkpt lat="42.91121" lon="1.97024">
        <ele>592.31</ele>
        <time>2012-12-20T09:52:17Z</time>
      </trkpt>
      <trkpt lat="42.91126" lon="1.96924">
        <ele>589.43</ele>
        <time>2012-12-20T09:52:26Z</time>
      </trkpt>
      <trkpt lat="42.91126" lon="1.9683">
        <ele>586.06</ele>
        <time>2012-12-20T09:52:34Z</time>
      </trkpt>
      <trkpt lat="42.91134" lon="1.96735">
        <ele>582.7</ele>
        <time>2012-12-20T09:52:42Z</time>
      </trkpt>
      <trkpt lat="42.9114" lon="1.96641">
        <ele>579.81</ele>
        <time>2012-12-20T09:52:50Z</time>
      </trkpt>
      <trkpt lat="42.91143" lon="1.96581">
        <ele>577.89</ele>
        <time>2012-12-20T09:52:55Z</time>
      </trkpt>
      <trkpt lat="42.9113" lon="1.96495">
        <ele>574.04</ele>
        <time>2012-12-20T09:53:02Z</time>
      </trkpt>
      <trkpt lat="42.91118" lon="1.9641">
        <ele>570.68</ele>
        <time>2012-12-20T09:53:09Z</time>
      </trkpt>
      <trkpt lat="42.91111" lon="1.96294">
        <ele>567.8</ele>
        <time>2012-12-20T09:53:19Z</time>
      </trkpt>
      <trkpt lat="42.91106" lon="1.96199">
        <ele>564.43</ele>
        <time>2012-12-20T09:53:27Z</time>
      </trkpt>
      <trkpt lat="42.91121" lon="1.96078">
        <ele>560.59</ele>
        <time>2012-12-20T09:53:37Z</time>
      </trkpt>
      <trkpt lat="42.91123" lon="1.9599">
        <ele>557.22</ele>
        <time>2012-12-20T09:53:44Z</time>
      </trkpt>
      <trkpt lat="42.91107" lon="1.95914">
        <ele>553.38</ele>
        <time>2012-12-20T09:53:50Z</time>
      </trkpt>
      <trkpt lat="42.91105" lon="1.95901">
        <ele>553.38</ele>
        <time>2012-12-20T09:53:51Z</time>
      </trkpt>
      <trkpt lat="42.91095" lon="1.95825">
        <ele>550.01</ele>
        <time>2012-12-20T09:53:57Z</time>
      </trkpt>
      <trkpt lat="42.91084" lon="1.95705">
        <ele>546.65</ele>
        <time>2012-12-20T09:54:07Z</time>
      </trkpt>
      <trkpt lat="42.91084" lon="1.95653">
        <ele>545.2</ele>
        <time>2012-12-20T09:54:11Z</time>
      </trkpt>
      <trkpt lat="42.91079" lon="1.95616">
        <ele>543.76</ele>
        <time>2012-12-20T09:54:14Z</time>
      </trkpt>
      <trkpt lat="42.9108" lon="1.95506">
        <ele>540.4</ele>
        <time>2012-12-20T09:54:23Z</time>
      </trkpt>
      <trkpt lat="42.91088" lon="1.95403">
        <ele>537.03</ele>
        <time>2012-12-20T09:54:32Z</time>
      </trkpt>
      <trkpt lat="42.91098" lon="1.95289">
        <ele>534.15</ele>
        <time>2012-12-20T09:54:42Z</time>
      </trkpt>
      <trkpt lat="42.91108" lon="1.95168">
        <ele>530.79</ele>
        <time>2012-12-20T09:54:52Z</time>
      </trkpt>
      <trkpt lat="42.911" lon="1.94998">
        <ele>527.42</ele>
        <time>2012-12-20T09:55:07Z</time>
      </trkpt>
      <trkpt lat="42.91086" lon="1.94855">
        <ele>524.54</ele>
        <time>2012-12-20T09:55:20Z</time>
      </trkpt>
      <trkpt lat="42.91078" lon="1.94715">
        <ele>521.65</ele>
        <time>2012-12-20T09:55:33Z</time>
      </trkpt>
      <trkpt lat="42.91086" lon="1.94597">
        <ele>517.81</ele>
        <time>2012-12-20T09:55:43Z</time>
      </trkpt>
      <trkpt lat="42.91075" lon="1.94542">
        <ele>516.37</ele>
        <time>2012-12-20T09:55:48Z</time>
      </trkpt>
      <trkpt lat="42.91066" lon="1.94522">
        <ele>515.88</ele>
        <time>2012-12-20T09:55:50Z</time>
      </trkpt>
      <trkpt lat="42.91059" lon="1.94476">
        <ele>513.96</ele>
        <time>2012-12-20T09:55:54Z</time>
      </trkpt>
      <trkpt lat="42.91058" lon="1.9444">
        <ele>512.52</ele>
        <time>2012-12-20T09:55:57Z</time>
      </trkpt>
      <trkpt lat="42.91027" lon="1.94344">
        <ele>509.16</ele>
        <time>2012-12-20T09:56:06Z</time>
      </trkpt>
      <trkpt lat="42.90994" lon="1.94273">
        <ele>506.27</ele>
        <time>2012-12-20T09:56:13Z</time>
      </trkpt>
      <trkpt lat="42.9096" lon="1.942">
        <ele>503.39</ele>
        <time>2012-12-20T09:56:20Z</time>
      </trkpt>
      <trkpt lat="42.90911" lon="1.94091">
        <ele>500.02</ele>
        <time>2012-12-20T09:56:31Z</time>
      </trkpt>
      <trkpt lat="42.90878" lon="1.94019">
        <ele>498.1</ele>
        <time>2012-12-20T09:56:39Z</time>
      </trkpt>
      <trkpt lat="42.90808" lon="1.93956">
        <ele>497.14</ele>
        <time>2012-12-20T09:56:51Z</time>
      </trkpt>
      <trkpt lat="42.90699" lon="1.93872">
        <ele>495.7</ele>
        <time>2012-12-20T09:57:11Z</time>
      </trkpt>
      <trkpt lat="42.90544" lon="1.93746">
        <ele>492.81</ele>
        <time>2012-12-20T09:57:39Z</time>
      </trkpt>
      <trkpt lat="42.9048" lon="1.93654">
        <ele>491.85</ele>
        <time>2012-12-20T09:57:54Z</time>
      </trkpt>
      <trkpt lat="42.9041" lon="1.93554">
        <ele>491.37</ele>
        <time>2012-12-20T09:58:13Z</time>
      </trkpt>
      <trkpt lat="42.90339" lon="1.93436">
        <ele>493.77</ele>
        <time>2012-12-20T09:58:39Z</time>
      </trkpt>
      <trkpt lat="42.90332" lon="1.93424">
        <ele>493.77</ele>
        <time>2012-12-20T09:58:42Z</time>
      </trkpt>
      <trkpt lat="42.9034" lon="1.93389">
        <ele>493.29</ele>
        <time>2012-12-20T09:58:48Z</time>
      </trkpt>
      <trkpt lat="42.90355" lon="1.93369">
        <ele>492.81</ele>
        <time>2012-12-20T09:58:52Z</time>
      </trkpt>
      <trkpt lat="42.90369" lon="1.93346">
        <ele>492.81</ele>
        <time>2012-12-20T09:58:56Z</time>
      </trkpt>
      <trkpt lat="42.90444" lon="1.93218">
        <ele>492.33</ele>
        <time>2012-12-20T09:59:16Z</time>
      </trkpt>
      <trkpt lat="42.90564" lon="1.93064">
        <ele>489.93</ele>
        <time>2012-12-20T09:59:42Z</time>
      </trkpt>
      <trkpt lat="42.90702" lon="1.92879">
        <ele>488.01</ele>
        <time>2012-12-20T10:00:14Z</time>
      </trkpt>
      <trkpt lat="42.90812" lon="1.92728">
        <ele>485.6</ele>
        <time>2012-12-20T10:00:39Z</time>
      </trkpt>
      <trkpt lat="42.90956" lon="1.92534">
        <ele>484.16</ele>
        <time>2012-12-20T10:01:12Z</time>
      </trkpt>
      <trkpt lat="42.91093" lon="1.92349">
        <ele>481.76</ele>
        <time>2012-12-20T10:01:42Z</time>
      </trkpt>
      <trkpt lat="42.91138" lon="1.92231">
        <ele>481.28</ele>
        <time>2012-12-20T10:01:58Z</time>
      </trkpt>
      <trkpt lat="42.9121" lon="1.91934">
        <ele>478.87</ele>
        <time>2012-12-20T10:02:36Z</time>
      </trkpt>
      <trkpt lat="42.91285" lon="1.91625">
        <ele>476.47</ele>
        <time>2012-12-20T10:03:15Z</time>
      </trkpt>
      <trkpt lat="42.91363" lon="1.91306">
        <ele>474.07</ele>
        <time>2012-12-20T10:03:54Z</time>
      </trkpt>
      <trkpt lat="42.91435" lon="1.91007">
        <ele>471.66</ele>
        <time>2012-12-20T10:04:30Z</time>
      </trkpt>
      <trkpt lat="42.91507" lon="1.90703">
        <ele>468.3</ele>
        <time>2012-12-20T10:05:07Z</time>
      </trkpt>
      <trkpt lat="42.91574" lon="1.90435">
        <ele>466.38</ele>
        <time>2012-12-20T10:05:40Z</time>
      </trkpt>
      <trkpt lat="42.91634" lon="1.90318">
        <ele>464.45</ele>
        <time>2012-12-20T10:05:56Z</time>
      </trkpt>
      <trkpt lat="42.91702" lon="1.90196">
        <ele>462.53</ele>
        <time>2012-12-20T10:06:13Z</time>
      </trkpt>
      <trkpt lat="42.91708" lon="1.9015">
        <ele>461.57</ele>
        <time>2012-12-20T10:06:18Z</time>
      </trkpt>
      <trkpt lat="42.91706" lon="1.90087">
        <ele>461.09</ele>
        <time>2012-12-20T10:06:25Z</time>
      </trkpt>
      <trkpt lat="42.9171" lon="1.89955">
        <ele>461.57</ele>
        <time>2012-12-20T10:06:42Z</time>
      </trkpt>
      <trkpt lat="42.91706" lon="1.89842">
        <ele>463.01</ele>
        <time>2012-12-20T10:07:02Z</time>
      </trkpt>
      <trkpt lat="42.91718" lon="1.8971">
        <ele>466.38</ele>
        <time>2012-12-20T10:07:30Z</time>
      </trkpt>
      <trkpt lat="42.91747" lon="1.89609">
        <ele>469.26</ele>
        <time>2012-12-20T10:07:55Z</time>
      </trkpt>
      <trkpt lat="42.91789" lon="1.89521">
        <ele>472.63</ele>
        <time>2012-12-20T10:08:20Z</time>
      </trkpt>
      <trkpt lat="42.91837" lon="1.89428">
        <ele>475.51</ele>
        <time>2012-12-20T10:08:48Z</time>
      </trkpt>
      <trkpt lat="42.91867" lon="1.89346">
        <ele>477.91</ele>
        <time>2012-12-20T10:09:09Z</time>
      </trkpt>
      <trkpt lat="42.91881" lon="1.89239">
        <ele>480.32</ele>
        <time>2012-12-20T10:09:34Z</time>
      </trkpt>
      <trkpt lat="42.91923" lon="1.89161">
        <ele>483.68</ele>
        <time>2012-12-20T10:09:59Z</time>
      </trkpt>
      <trkpt lat="42.91945" lon="1.89052">
        <ele>486.56</ele>
        <time>2012-12-20T10:10:28Z</time>
      </trkpt>
      <trkpt lat="42.91967" lon="1.88923">
        <ele>489.45</ele>
        <time>2012-12-20T10:11:01Z</time>
      </trkpt>
      <trkpt lat="42.91992" lon="1.88811">
        <ele>492.33</ele>
        <time>2012-12-20T10:11:30Z</time>
      </trkpt>
      <trkpt lat="42.92018" lon="1.88713">
        <ele>494.74</ele>
        <time>2012-12-20T10:11:56Z</time>
      </trkpt>
      <trkpt lat="42.92034" lon="1.88615">
        <ele>498.1</ele>
        <time>2012-12-20T10:12:21Z</time>
      </trkpt>
      <trkpt lat="42.92066" lon="1.8849">
        <ele>500.98</ele>
        <time>2012-12-20T10:12:53Z</time>
      </trkpt>
      <trkpt lat="42.92092" lon="1.88397">
        <ele>503.87</ele>
        <time>2012-12-20T10:13:19Z</time>
      </trkpt>
      <trkpt lat="42.92116" lon="1.88324">
        <ele>505.31</ele>
        <time>2012-12-20T10:13:37Z</time>
      </trkpt>
      <trkpt lat="42.9216" lon="1.88235">
        <ele>508.67</ele>
        <time>2012-12-20T10:14:04Z</time>
      </trkpt>
      <trkpt lat="42.92174" lon="1.88151">
        <ele>511.08</ele>
        <time>2012-12-20T10:14:28Z</time>
      </trkpt>
      <trkpt lat="42.92181" lon="1.88078">
        <ele>513</ele>
        <time>2012-12-20T10:14:49Z</time>
      </trkpt>
      <trkpt lat="42.92203" lon="1.88008">
        <ele>514.92</ele>
        <time>2012-12-20T10:15:09Z</time>
      </trkpt>
      <trkpt lat="42.92231" lon="1.8791">
        <ele>517.33</ele>
        <time>2012-12-20T10:15:37Z</time>
      </trkpt>
      <trkpt lat="42.92256" lon="1.87802">
        <ele>520.21</ele>
        <time>2012-12-20T10:16:07Z</time>
      </trkpt>
      <trkpt lat="42.92273" lon="1.87698">
        <ele>523.58</ele>
        <time>2012-12-20T10:16:36Z</time>
      </trkpt>
      <trkpt lat="42.92297" lon="1.87623">
        <ele>525.5</ele>
        <time>2012-12-20T10:16:58Z</time>
      </trkpt>
      <trkpt lat="42.92314" lon="1.87523">
        <ele>528.38</ele>
        <time>2012-12-20T10:17:28Z</time>
      </trkpt>
      <trkpt lat="42.92299" lon="1.87439">
        <ele>530.79</ele>
        <time>2012-12-20T10:17:50Z</time>
      </trkpt>
      <trkpt lat="42.9229" lon="1.87359">
        <ele>532.71</ele>
        <time>2012-12-20T10:18:09Z</time>
      </trkpt>
      <trkpt lat="42.92296" lon="1.87234">
        <ele>534.15</ele>
        <time>2012-12-20T10:18:36Z</time>
      </trkpt>
      <trkpt lat="42.92303" lon="1.87081">
        <ele>535.59</ele>
        <time>2012-12-20T10:19:00Z</time>
      </trkpt>
      <trkpt lat="42.92329" lon="1.86933">
        <ele>536.07</ele>
        <time>2012-12-20T10:19:22Z</time>
      </trkpt>
      <trkpt lat="42.92425" lon="1.86718">
        <ele>533.67</ele>
        <time>2012-12-20T10:19:50Z</time>
      </trkpt>
      <trkpt lat="42.92554" lon="1.86418">
        <ele>532.71</ele>
        <time>2012-12-20T10:20:28Z</time>
      </trkpt>
      <trkpt lat="42.92649" lon="1.86199">
        <ele>530.79</ele>
        <time>2012-12-20T10:20:56Z</time>
      </trkpt>
      <trkpt lat="42.9273" lon="1.86039">
        <ele>527.42</ele>
        <time>2012-12-20T10:21:15Z</time>
      </trkpt>
      <trkpt lat="42.92806" lon="1.85918">
        <ele>524.54</ele>
        <time>2012-12-20T10:21:30Z</time>
      </trkpt>
      <trkpt lat="42.92917" lon="1.85733">
        <ele>522.61</ele>
        <time>2012-12-20T10:21:56Z</time>
      </trkpt>
      <trkpt lat="42.92989" lon="1.85594">
        <ele>522.13</ele>
        <time>2012-12-20T10:22:18Z</time>
      </trkpt>
      <trkpt lat="42.93051" lon="1.85432">
        <ele>522.13</ele>
        <time>2012-12-20T10:22:42Z</time>
      </trkpt>
      <trkpt lat="42.9311" lon="1.85297">
        <ele>520.69</ele>
        <time>2012-12-20T10:23:01Z</time>
      </trkpt>
      <trkpt lat="42.93185" lon="1.85123">
        <ele>519.73</ele>
        <time>2012-12-20T10:23:22Z</time>
      </trkpt>
      <trkpt lat="42.93245" lon="1.84984">
        <ele>520.21</ele>
        <time>2012-12-20T10:23:43Z</time>
      </trkpt>
      <trkpt lat="42.93258" lon="1.84944">
        <ele>519.73</ele>
        <time>2012-12-20T10:23:49Z</time>
      </trkpt>
      <trkpt lat="42.93263" lon="1.84924">
        <ele>519.73</ele>
        <time>2012-12-20T10:23:52Z</time>
      </trkpt>
      <trkpt lat="42.93274" lon="1.84854">
        <ele>518.29</ele>
        <time>2012-12-20T10:24:06Z</time>
      </trkpt>
      <trkpt lat="42.93253" lon="1.84784">
        <ele>519.25</ele>
        <time>2012-12-20T10:24:22Z</time>
      </trkpt>
      <trkpt lat="42.9322" lon="1.84734">
        <ele>520.21</ele>
        <time>2012-12-20T10:24:37Z</time>
      </trkpt>
      <trkpt lat="42.93215" lon="1.84707">
        <ele>520.69</ele>
        <time>2012-12-20T10:24:47Z</time>
      </trkpt>
      <trkpt lat="42.93212" lon="1.84706">
        <ele>521.65</ele>
        <time>2012-12-20T10:25:17Z</time>
      </trkpt>
      <trkpt lat="42.9321" lon="1.84704">
        <ele>520.69</ele>
        <time>2012-12-20T10:26:48Z</time>
      </trkpt>
      <trkpt lat="42.93219" lon="1.84703">
        <ele>522.61</ele>
        <time>2012-12-20T10:32:10Z</time>
      </trkpt>
      <trkpt lat="42.9322" lon="1.84699">
        <ele>522.61</ele>
        <time>2012-12-20T10:33:10Z</time>
      </trkpt>
      <trkpt lat="42.93215" lon="1.84702">
        <ele>523.09</ele>
        <time>2012-12-20T10:33:43Z</time>
      </trkpt>
      <trkpt lat="42.93207" lon="1.84706">
        <ele>523.09</ele>
        <time>2012-12-20T10:34:05Z</time>
      </trkpt>
      <trkpt lat="42.93191" lon="1.84691">
        <ele>523.58</ele>
        <time>2012-12-20T10:34:19Z</time>
      </trkpt>
      <trkpt lat="42.93147" lon="1.84632">
        <ele>525.02</ele>
        <time>2012-12-20T10:34:39Z</time>
      </trkpt>
      <trkpt lat="42.93064" lon="1.84523">
        <ele>527.42</ele>
        <time>2012-12-20T10:35:15Z</time>
      </trkpt>
      <trkpt lat="42.93001" lon="1.8444">
        <ele>529.82</ele>
        <time>2012-12-20T10:35:42Z</time>
      </trkpt>
      <trkpt lat="42.92927" lon="1.84341">
        <ele>531.75</ele>
        <time>2012-12-20T10:36:15Z</time>
      </trkpt>
      <trkpt lat="42.92883" lon="1.84286">
        <ele>533.67</ele>
        <time>2012-12-20T10:36:34Z</time>
      </trkpt>
      <trkpt lat="42.92829" lon="1.84225">
        <ele>535.11</ele>
        <time>2012-12-20T10:36:56Z</time>
      </trkpt>
      <trkpt lat="42.92751" lon="1.84123">
        <ele>537.99</ele>
        <time>2012-12-20T10:37:31Z</time>
      </trkpt>
      <trkpt lat="42.92691" lon="1.84043">
        <ele>540.88</ele>
        <time>2012-12-20T10:38:00Z</time>
      </trkpt>
      <trkpt lat="42.92659" lon="1.84001">
        <ele>543.76</ele>
        <time>2012-12-20T10:38:16Z</time>
      </trkpt>
      <trkpt lat="42.92613" lon="1.83938">
        <ele>546.65</ele>
        <time>2012-12-20T10:38:40Z</time>
      </trkpt>
      <trkpt lat="42.92536" lon="1.83838">
        <ele>550.01</ele>
        <time>2012-12-20T10:39:16Z</time>
      </trkpt>
      <trkpt lat="42.92463" lon="1.83743">
        <ele>552.9</ele>
        <time>2012-12-20T10:39:49Z</time>
      </trkpt>
      <trkpt lat="42.92442" lon="1.83697">
        <ele>554.34</ele>
        <time>2012-12-20T10:40:03Z</time>
      </trkpt>
      <trkpt lat="42.92431" lon="1.83694">
        <ele>554.82</ele>
        <time>2012-12-20T10:40:07Z</time>
      </trkpt>
      <trkpt lat="42.9242" lon="1.83687">
        <ele>555.3</ele>
        <time>2012-12-20T10:40:11Z</time>
      </trkpt>
      <trkpt lat="42.9237" lon="1.83622">
        <ele>558.18</ele>
        <time>2012-12-20T10:40:35Z</time>
      </trkpt>
      <trkpt lat="42.92325" lon="1.83565">
        <ele>561.55</ele>
        <time>2012-12-20T10:40:57Z</time>
      </trkpt>
      <trkpt lat="42.92279" lon="1.83506">
        <ele>563.95</ele>
        <time>2012-12-20T10:41:17Z</time>
      </trkpt>
      <trkpt lat="42.92219" lon="1.83429">
        <ele>566.83</ele>
        <time>2012-12-20T10:41:45Z</time>
      </trkpt>
      <trkpt lat="42.92139" lon="1.83331">
        <ele>570.2</ele>
        <time>2012-12-20T10:42:21Z</time>
      </trkpt>
      <trkpt lat="42.92051" lon="1.83211">
        <ele>572.6</ele>
        <time>2012-12-20T10:42:58Z</time>
      </trkpt>
      <trkpt lat="42.91977" lon="1.83108">
        <ele>574.04</ele>
        <time>2012-12-20T10:43:27Z</time>
      </trkpt>
      <trkpt lat="42.91896" lon="1.82989">
        <ele>573.56</ele>
        <time>2012-12-20T10:43:50Z</time>
      </trkpt>
      <trkpt lat="42.91791" lon="1.82882">
        <ele>571.16</ele>
        <time>2012-12-20T10:44:10Z</time>
      </trkpt>
      <trkpt lat="42.91698" lon="1.82743">
        <ele>568.76</ele>
        <time>2012-12-20T10:44:29Z</time>
      </trkpt>
      <trkpt lat="42.91658" lon="1.82651">
        <ele>570.68</ele>
        <time>2012-12-20T10:44:46Z</time>
      </trkpt>
      <trkpt lat="42.91634" lon="1.82575">
        <ele>574.04</ele>
        <time>2012-12-20T10:45:04Z</time>
      </trkpt>
      <trkpt lat="42.91615" lon="1.8249">
        <ele>576.93</ele>
        <time>2012-12-20T10:45:25Z</time>
      </trkpt>
      <trkpt lat="42.91598" lon="1.82363">
        <ele>579.81</ele>
        <time>2012-12-20T10:45:53Z</time>
      </trkpt>
      <trkpt lat="42.91595" lon="1.82227">
        <ele>578.37</ele>
        <time>2012-12-20T10:46:11Z</time>
      </trkpt>
      <trkpt lat="42.91593" lon="1.82074">
        <ele>575.01</ele>
        <time>2012-12-20T10:46:26Z</time>
      </trkpt>
      <trkpt lat="42.91591" lon="1.81924">
        <ele>572.12</ele>
        <time>2012-12-20T10:46:40Z</time>
      </trkpt>
      <trkpt lat="42.91584" lon="1.81774">
        <ele>569.24</ele>
        <time>2012-12-20T10:46:54Z</time>
      </trkpt>
      <trkpt lat="42.91551" lon="1.81587">
        <ele>565.87</ele>
        <time>2012-12-20T10:47:12Z</time>
      </trkpt>
      <trkpt lat="42.9154" lon="1.8148">
        <ele>562.51</ele>
        <time>2012-12-20T10:47:21Z</time>
      </trkpt>
      <trkpt lat="42.91546" lon="1.81266">
        <ele>560.11</ele>
        <time>2012-12-20T10:47:40Z</time>
      </trkpt>
      <trkpt lat="42.91553" lon="1.8104">
        <ele>560.11</ele>
        <time>2012-12-20T10:48:05Z</time>
      </trkpt>
      <trkpt lat="42.91565" lon="1.80811">
        <ele>562.03</ele>
        <time>2012-12-20T10:48:35Z</time>
      </trkpt>
      <trkpt lat="42.91569" lon="1.80555">
        <ele>562.03</ele>
        <time>2012-12-20T10:49:09Z</time>
      </trkpt>
      <trkpt lat="42.91577" lon="1.8034">
        <ele>562.03</ele>
        <time>2012-12-20T10:49:35Z</time>
      </trkpt>
      <trkpt lat="42.91591" lon="1.79997">
        <ele>558.66</ele>
        <time>2012-12-20T10:50:11Z</time>
      </trkpt>
      <trkpt lat="42.91576" lon="1.79801">
        <ele>557.7</ele>
        <time>2012-12-20T10:50:32Z</time>
      </trkpt>
      <trkpt lat="42.91526" lon="1.79533">
        <ele>556.74</ele>
        <time>2012-12-20T10:51:02Z</time>
      </trkpt>
      <trkpt lat="42.91471" lon="1.79414">
        <ele>556.26</ele>
        <time>2012-12-20T10:51:21Z</time>
      </trkpt>
      <trkpt lat="42.91399" lon="1.79281">
        <ele>559.14</ele>
        <time>2012-12-20T10:51:48Z</time>
      </trkpt>
      <trkpt lat="42.91324" lon="1.79109">
        <ele>560.11</ele>
        <time>2012-12-20T10:52:23Z</time>
      </trkpt>
      <trkpt lat="42.91288" lon="1.78923">
        <ele>562.03</ele>
        <time>2012-12-20T10:52:55Z</time>
      </trkpt>
      <trkpt lat="42.91261" lon="1.78769">
        <ele>563.47</ele>
        <time>2012-12-20T10:53:21Z</time>
      </trkpt>
      <trkpt lat="42.91228" lon="1.78584">
        <ele>564.91</ele>
        <time>2012-12-20T10:53:52Z</time>
      </trkpt>
      <trkpt lat="42.91212" lon="1.78402">
        <ele>567.8</ele>
        <time>2012-12-20T10:54:22Z</time>
      </trkpt>
      <trkpt lat="42.91244" lon="1.78293">
        <ele>569.24</ele>
        <time>2012-12-20T10:54:43Z</time>
      </trkpt>
      <trkpt lat="42.91279" lon="1.78192">
        <ele>570.68</ele>
        <time>2012-12-20T10:55:04Z</time>
      </trkpt>
      <trkpt lat="42.91298" lon="1.78041">
        <ele>572.12</ele>
        <time>2012-12-20T10:55:32Z</time>
      </trkpt>
      <trkpt lat="42.91264" lon="1.7793">
        <ele>574.04</ele>
        <time>2012-12-20T10:55:53Z</time>
      </trkpt>
      <trkpt lat="42.91253" lon="1.77827">
        <ele>575.01</ele>
        <time>2012-12-20T10:56:10Z</time>
      </trkpt>
      <trkpt lat="42.91278" lon="1.77731">
        <ele>576.93</ele>
        <time>2012-12-20T10:56:30Z</time>
      </trkpt>
      <trkpt lat="42.91306" lon="1.77626">
        <ele>579.81</ele>
        <time>2012-12-20T10:56:55Z</time>
      </trkpt>
      <trkpt lat="42.91324" lon="1.77563">
        <ele>582.7</ele>
        <time>2012-12-20T10:57:13Z</time>
      </trkpt>
      <trkpt lat="42.91352" lon="1.77495">
        <ele>585.58</ele>
        <time>2012-12-20T10:57:34Z</time>
      </trkpt>
      <trkpt lat="42.91376" lon="1.77394">
        <ele>588.46</ele>
        <time>2012-12-20T10:58:02Z</time>
      </trkpt>
      <trkpt lat="42.91382" lon="1.77286">
        <ele>589.43</ele>
        <time>2012-12-20T10:58:21Z</time>
      </trkpt>
      <trkpt lat="42.91418" lon="1.77139">
        <ele>590.39</ele>
        <time>2012-12-20T10:58:44Z</time>
      </trkpt>
      <trkpt lat="42.91494" lon="1.76943">
        <ele>591.83</ele>
        <time>2012-12-20T10:59:17Z</time>
      </trkpt>
      <trkpt lat="42.91509" lon="1.76838">
        <ele>592.79</ele>
        <time>2012-12-20T10:59:35Z</time>
      </trkpt>
      <trkpt lat="42.91504" lon="1.76724">
        <ele>596.15</ele>
        <time>2012-12-20T10:59:54Z</time>
      </trkpt>
      <trkpt lat="42.91505" lon="1.76608">
        <ele>599.04</ele>
        <time>2012-12-20T11:00:17Z</time>
      </trkpt>
      <trkpt lat="42.91506" lon="1.76478">
        <ele>602.4</ele>
        <time>2012-12-20T11:00:47Z</time>
      </trkpt>
      <trkpt lat="42.91505" lon="1.76338">
        <ele>605.29</ele>
        <time>2012-12-20T11:01:21Z</time>
      </trkpt>
      <trkpt lat="42.91503" lon="1.76248">
        <ele>608.65</ele>
        <time>2012-12-20T11:01:45Z</time>
      </trkpt>
      <trkpt lat="42.91506" lon="1.76166">
        <ele>611.54</ele>
        <time>2012-12-20T11:02:08Z</time>
      </trkpt>
      <trkpt lat="42.91514" lon="1.76094">
        <ele>614.9</ele>
        <time>2012-12-20T11:02:28Z</time>
      </trkpt>
      <trkpt lat="42.91521" lon="1.76024">
        <ele>617.78</ele>
        <time>2012-12-20T11:02:47Z</time>
      </trkpt>
      <trkpt lat="42.9153" lon="1.75966">
        <ele>620.19</ele>
        <time>2012-12-20T11:03:04Z</time>
      </trkpt>
      <trkpt lat="42.91569" lon="1.75886">
        <ele>623.07</ele>
        <time>2012-12-20T11:03:30Z</time>
      </trkpt>
      <trkpt lat="42.91606" lon="1.75829">
        <ele>626.44</ele>
        <time>2012-12-20T11:03:48Z</time>
      </trkpt>
      <trkpt lat="42.9164" lon="1.75813">
        <ele>627.88</ele>
        <time>2012-12-20T11:04:00Z</time>
      </trkpt>
      <trkpt lat="42.91686" lon="1.7582">
        <ele>631.24</ele>
        <time>2012-12-20T11:04:18Z</time>
      </trkpt>
      <trkpt lat="42.91727" lon="1.75797">
        <ele>631.72</ele>
        <time>2012-12-20T11:04:33Z</time>
      </trkpt>
      <trkpt lat="42.9179" lon="1.75755">
        <ele>628.84</ele>
        <time>2012-12-20T11:04:45Z</time>
      </trkpt>
      <trkpt lat="42.91843" lon="1.75715">
        <ele>625.47</ele>
        <time>2012-12-20T11:04:52Z</time>
      </trkpt>
      <trkpt lat="42.91875" lon="1.75691">
        <ele>622.11</ele>
        <time>2012-12-20T11:04:56Z</time>
      </trkpt>
      <trkpt lat="42.91891" lon="1.75678">
        <ele>621.15</ele>
        <time>2012-12-20T11:04:58Z</time>
      </trkpt>
      <trkpt lat="42.91922" lon="1.75652">
        <ele>617.3</ele>
        <time>2012-12-20T11:05:02Z</time>
      </trkpt>
      <trkpt lat="42.9195" lon="1.75622">
        <ele>613.46</ele>
        <time>2012-12-20T11:05:06Z</time>
      </trkpt>
      <trkpt lat="42.91964" lon="1.75605">
        <ele>612.5</ele>
        <time>2012-12-20T11:05:08Z</time>
      </trkpt>
      <trkpt lat="42.91987" lon="1.75564">
        <ele>609.13</ele>
        <time>2012-12-20T11:05:12Z</time>
      </trkpt>
      <trkpt lat="42.92005" lon="1.75518">
        <ele>605.29</ele>
        <time>2012-12-20T11:05:16Z</time>
      </trkpt>
      <trkpt lat="42.92012" lon="1.75495">
        <ele>603.85</ele>
        <time>2012-12-20T11:05:18Z</time>
      </trkpt>
      <trkpt lat="42.9202" lon="1.75463">
        <ele>600.96</ele>
        <time>2012-12-20T11:05:21Z</time>
      </trkpt>
      <trkpt lat="42.92026" lon="1.75432">
        <ele>597.6</ele>
        <time>2012-12-20T11:05:24Z</time>
      </trkpt>
      <trkpt lat="42.92038" lon="1.75365">
        <ele>594.71</ele>
        <time>2012-12-20T11:05:30Z</time>
      </trkpt>
      <trkpt lat="42.92044" lon="1.7533">
        <ele>591.83</ele>
        <time>2012-12-20T11:05:33Z</time>
      </trkpt>
      <trkpt lat="42.92067" lon="1.75271">
        <ele>588.95</ele>
        <time>2012-12-20T11:05:38Z</time>
      </trkpt>
      <trkpt lat="42.92118" lon="1.75216">
        <ele>584.62</ele>
        <time>2012-12-20T11:05:44Z</time>
      </trkpt>
      <trkpt lat="42.92128" lon="1.75211">
        <ele>583.66</ele>
        <time>2012-12-20T11:05:45Z</time>
      </trkpt>
      <trkpt lat="42.92162" lon="1.75197">
        <ele>581.25</ele>
        <time>2012-12-20T11:05:48Z</time>
      </trkpt>
      <trkpt lat="42.92198" lon="1.75184">
        <ele>578.37</ele>
        <time>2012-12-20T11:05:51Z</time>
      </trkpt>
      <trkpt lat="42.92249" lon="1.75165">
        <ele>575.01</ele>
        <time>2012-12-20T11:05:55Z</time>
      </trkpt>
      <trkpt lat="42.92275" lon="1.75155">
        <ele>574.04</ele>
        <time>2012-12-20T11:05:57Z</time>
      </trkpt>
      <trkpt lat="42.92313" lon="1.75137">
        <ele>569.72</ele>
        <time>2012-12-20T11:06:00Z</time>
      </trkpt>
      <trkpt lat="42.92349" lon="1.75113">
        <ele>565.87</ele>
        <time>2012-12-20T11:06:03Z</time>
      </trkpt>
      <trkpt lat="42.9238" lon="1.75079">
        <ele>563.95</ele>
        <time>2012-12-20T11:06:06Z</time>
      </trkpt>
      <trkpt lat="42.92421" lon="1.74999">
        <ele>560.11</ele>
        <time>2012-12-20T11:06:12Z</time>
      </trkpt>
      <trkpt lat="42.9243" lon="1.74972">
        <ele>559.62</ele>
        <time>2012-12-20T11:06:14Z</time>
      </trkpt>
      <trkpt lat="42.92471" lon="1.74844">
        <ele>556.26</ele>
        <time>2012-12-20T11:06:24Z</time>
      </trkpt>
      <trkpt lat="42.92516" lon="1.74704">
        <ele>552.9</ele>
        <time>2012-12-20T11:06:35Z</time>
      </trkpt>
      <trkpt lat="42.92548" lon="1.74604">
        <ele>549.53</ele>
        <time>2012-12-20T11:06:43Z</time>
      </trkpt>
      <trkpt lat="42.9259" lon="1.74483">
        <ele>546.65</ele>
        <time>2012-12-20T11:06:53Z</time>
      </trkpt>
      <trkpt lat="42.92637" lon="1.74399">
        <ele>543.28</ele>
        <time>2012-12-20T11:07:01Z</time>
      </trkpt>
      <trkpt lat="42.92688" lon="1.7429">
        <ele>539.92</ele>
        <time>2012-12-20T11:07:11Z</time>
      </trkpt>
      <trkpt lat="42.92721" lon="1.74178">
        <ele>536.55</ele>
        <time>2012-12-20T11:07:21Z</time>
      </trkpt>
      <trkpt lat="42.92775" lon="1.74">
        <ele>533.67</ele>
        <time>2012-12-20T11:07:37Z</time>
      </trkpt>
      <trkpt lat="42.9282" lon="1.73879">
        <ele>531.27</ele>
        <time>2012-12-20T11:07:49Z</time>
      </trkpt>
      <trkpt lat="42.92936" lon="1.73646">
        <ele>527.9</ele>
        <time>2012-12-20T11:08:14Z</time>
      </trkpt>
      <trkpt lat="42.9303" lon="1.73458">
        <ele>525.02</ele>
        <time>2012-12-20T11:08:35Z</time>
      </trkpt>
      <trkpt lat="42.9315" lon="1.73219">
        <ele>522.13</ele>
        <time>2012-12-20T11:09:00Z</time>
      </trkpt>
      <trkpt lat="42.9322" lon="1.73027">
        <ele>520.21</ele>
        <time>2012-12-20T11:09:19Z</time>
      </trkpt>
      <trkpt lat="42.93247" lon="1.72782">
        <ele>516.85</ele>
        <time>2012-12-20T11:09:41Z</time>
      </trkpt>
      <trkpt lat="42.93269" lon="1.72551">
        <ele>515.88</ele>
        <time>2012-12-20T11:10:02Z</time>
      </trkpt>
      <trkpt lat="42.93299" lon="1.72237">
        <ele>513.96</ele>
        <time>2012-12-20T11:10:34Z</time>
      </trkpt>
      <trkpt lat="42.9334" lon="1.718">
        <ele>511.56</ele>
        <time>2012-12-20T11:11:17Z</time>
      </trkpt>
      <trkpt lat="42.93374" lon="1.71427">
        <ele>510.6</ele>
        <time>2012-12-20T11:11:55Z</time>
      </trkpt>
      <trkpt lat="42.93363" lon="1.71221">
        <ele>508.19</ele>
        <time>2012-12-20T11:12:17Z</time>
      </trkpt>
      <trkpt lat="42.93311" lon="1.71034">
        <ele>505.79</ele>
        <time>2012-12-20T11:12:36Z</time>
      </trkpt>
      <trkpt lat="42.93221" lon="1.7085">
        <ele>504.35</ele>
        <time>2012-12-20T11:12:57Z</time>
      </trkpt>
      <trkpt lat="42.93112" lon="1.70671">
        <ele>502.43</ele>
        <time>2012-12-20T11:13:21Z</time>
      </trkpt>
      <trkpt lat="42.9298" lon="1.70556">
        <ele>502.43</ele>
        <time>2012-12-20T11:13:42Z</time>
      </trkpt>
      <trkpt lat="42.92819" lon="1.70406">
        <ele>500.02</ele>
        <time>2012-12-20T11:14:10Z</time>
      </trkpt>
      <trkpt lat="42.92752" lon="1.70273">
        <ele>498.58</ele>
        <time>2012-12-20T11:14:27Z</time>
      </trkpt>
      <trkpt lat="42.92662" lon="1.70051">
        <ele>497.14</ele>
        <time>2012-12-20T11:14:53Z</time>
      </trkpt>
      <trkpt lat="42.9259" lon="1.69858">
        <ele>495.22</ele>
        <time>2012-12-20T11:15:17Z</time>
      </trkpt>
      <trkpt lat="42.92514" lon="1.69623">
        <ele>493.77</ele>
        <time>2012-12-20T11:15:47Z</time>
      </trkpt>
      <trkpt lat="42.92432" lon="1.69392">
        <ele>492.81</ele>
        <time>2012-12-20T11:16:17Z</time>
      </trkpt>
      <trkpt lat="42.92353" lon="1.69295">
        <ele>491.85</ele>
        <time>2012-12-20T11:16:33Z</time>
      </trkpt>
      <trkpt lat="42.92232" lon="1.69227">
        <ele>490.41</ele>
        <time>2012-12-20T11:16:52Z</time>
      </trkpt>
      <trkpt lat="42.92132" lon="1.69139">
        <ele>488.97</ele>
        <time>2012-12-20T11:17:09Z</time>
      </trkpt>
      <trkpt lat="42.92028" lon="1.69003">
        <ele>487.53</ele>
        <time>2012-12-20T11:17:28Z</time>
      </trkpt>
      <trkpt lat="42.91908" lon="1.68785">
        <ele>485.12</ele>
        <time>2012-12-20T11:17:55Z</time>
      </trkpt>
      <trkpt lat="42.91792" lon="1.68557">
        <ele>482.72</ele>
        <time>2012-12-20T11:18:25Z</time>
      </trkpt>
      <trkpt lat="42.91724" lon="1.68357">
        <ele>481.28</ele>
        <time>2012-12-20T11:18:50Z</time>
      </trkpt>
      <trkpt lat="42.91663" lon="1.6826">
        <ele>479.84</ele>
        <time>2012-12-20T11:19:05Z</time>
      </trkpt>
      <trkpt lat="42.91576" lon="1.68147">
        <ele>478.39</ele>
        <time>2012-12-20T11:19:22Z</time>
      </trkpt>
      <trkpt lat="42.91491" lon="1.67997">
        <ele>476.47</ele>
        <time>2012-12-20T11:19:40Z</time>
      </trkpt>
      <trkpt lat="42.91439" lon="1.67811">
        <ele>474.07</ele>
        <time>2012-12-20T11:19:58Z</time>
      </trkpt>
      <trkpt lat="42.91436" lon="1.6762">
        <ele>471.66</ele>
        <time>2012-12-20T11:20:16Z</time>
      </trkpt>
      <trkpt lat="42.91462" lon="1.67356">
        <ele>469.74</ele>
        <time>2012-12-20T11:20:44Z</time>
      </trkpt>
      <trkpt lat="42.91471" lon="1.67236">
        <ele>469.26</ele>
        <time>2012-12-20T11:20:58Z</time>
      </trkpt>
      <trkpt lat="42.91485" lon="1.67181">
        <ele>469.26</ele>
        <time>2012-12-20T11:21:07Z</time>
      </trkpt>
      <trkpt lat="42.9149" lon="1.67068">
        <ele>468.78</ele>
        <time>2012-12-20T11:21:22Z</time>
      </trkpt>
      <trkpt lat="42.91537" lon="1.66779">
        <ele>466.86</ele>
        <time>2012-12-20T11:21:56Z</time>
      </trkpt>
      <trkpt lat="42.91562" lon="1.66609">
        <ele>463.49</ele>
        <time>2012-12-20T11:22:14Z</time>
      </trkpt>
      <trkpt lat="42.9157" lon="1.66458">
        <ele>460.61</ele>
        <time>2012-12-20T11:22:29Z</time>
      </trkpt>
      <trkpt lat="42.91573" lon="1.66194">
        <ele>458.21</ele>
        <time>2012-12-20T11:22:54Z</time>
      </trkpt>
      <trkpt lat="42.9158" lon="1.6595">
        <ele>457.24</ele>
        <time>2012-12-20T11:23:20Z</time>
      </trkpt>
      <trkpt lat="42.91629" lon="1.65825">
        <ele>456.76</ele>
        <time>2012-12-20T11:23:36Z</time>
      </trkpt>
      <trkpt lat="42.91709" lon="1.6573">
        <ele>454.84</ele>
        <time>2012-12-20T11:23:52Z</time>
      </trkpt>
      <trkpt lat="42.91778" lon="1.65618">
        <ele>452.44</ele>
        <time>2012-12-20T11:24:08Z</time>
      </trkpt>
      <trkpt lat="42.91808" lon="1.65481">
        <ele>452.92</ele>
        <time>2012-12-20T11:24:24Z</time>
      </trkpt>
      <trkpt lat="42.91793" lon="1.65322">
        <ele>452.92</ele>
        <time>2012-12-20T11:24:43Z</time>
      </trkpt>
      <trkpt lat="42.9175" lon="1.65122">
        <ele>450.03</ele>
        <time>2012-12-20T11:25:07Z</time>
      </trkpt>
      <trkpt lat="42.91703" lon="1.6492">
        <ele>449.55</ele>
        <time>2012-12-20T11:25:35Z</time>
      </trkpt>
      <trkpt lat="42.91673" lon="1.64776">
        <ele>451.48</ele>
        <time>2012-12-20T11:25:58Z</time>
      </trkpt>
      <trkpt lat="42.91673" lon="1.64704">
        <ele>452.44</ele>
        <time>2012-12-20T11:26:11Z</time>
      </trkpt>
      <trkpt lat="42.91704" lon="1.64559">
        <ele>453.4</ele>
        <time>2012-12-20T11:26:37Z</time>
      </trkpt>
      <trkpt lat="42.91748" lon="1.64383">
        <ele>453.88</ele>
        <time>2012-12-20T11:27:07Z</time>
      </trkpt>
      <trkpt lat="42.9178" lon="1.6425">
        <ele>451.48</ele>
        <time>2012-12-20T11:27:24Z</time>
      </trkpt>
      <trkpt lat="42.91804" lon="1.6415">
        <ele>452.44</ele>
        <time>2012-12-20T11:27:39Z</time>
      </trkpt>
      <trkpt lat="42.91823" lon="1.64077">
        <ele>452.92</ele>
        <time>2012-12-20T11:27:53Z</time>
      </trkpt>
      <trkpt lat="42.9183" lon="1.64041">
        <ele>452.44</ele>
        <time>2012-12-20T11:28:01Z</time>
      </trkpt>
      <trkpt lat="42.91778" lon="1.64059">
        <ele>452.44</ele>
        <time>2012-12-20T11:28:15Z</time>
      </trkpt>
      <trkpt lat="42.91779" lon="1.64047">
        <ele>452.44</ele>
        <time>2012-12-20T11:28:21Z</time>
      </trkpt>
      <trkpt lat="42.91785" lon="1.64034">
        <ele>451</ele>
        <time>2012-12-20T11:28:36Z</time>
      </trkpt>
      <trkpt lat="42.91785" lon="1.64035">
        <ele>450.52</ele>
        <time>2012-12-20T11:42:42Z</time>
      </trkpt>
      <trkpt lat="42.91784" lon="1.6404">
        <ele>451</ele>
        <time>2012-12-20T11:42:56Z</time>
      </trkpt>
      <trkpt lat="42.91769" lon="1.64052">
        <ele>451.48</ele>
        <time>2012-12-20T11:43:10Z</time>
      </trkpt>
      <trkpt lat="42.91736" lon="1.64067">
        <ele>452.44</ele>
        <time>2012-12-20T11:43:25Z</time>
      </trkpt>
      <trkpt lat="42.91657" lon="1.64087">
        <ele>452.92</ele>
        <time>2012-12-20T11:43:43Z</time>
      </trkpt>
      <trkpt lat="42.91561" lon="1.64104">
        <ele>453.4</ele>
        <time>2012-12-20T11:44:03Z</time>
      </trkpt>
      <trkpt lat="42.91492" lon="1.64136">
        <ele>453.88</ele>
        <time>2012-12-20T11:44:17Z</time>
      </trkpt>
      <trkpt lat="42.9148" lon="1.64147">
        <ele>454.36</ele>
        <time>2012-12-20T11:44:20Z</time>
      </trkpt>
      <trkpt lat="42.91465" lon="1.64171">
        <ele>454.84</ele>
        <time>2012-12-20T11:44:25Z</time>
      </trkpt>
      <trkpt lat="42.91445" lon="1.64233">
        <ele>457.24</ele>
        <time>2012-12-20T11:44:38Z</time>
      </trkpt>
      <trkpt lat="42.91421" lon="1.64267">
        <ele>457.72</ele>
        <time>2012-12-20T11:44:46Z</time>
      </trkpt>
      <trkpt lat="42.91322" lon="1.64318">
        <ele>456.76</ele>
        <time>2012-12-20T11:45:04Z</time>
      </trkpt>
      <trkpt lat="42.9122" lon="1.64344">
        <ele>457.24</ele>
        <time>2012-12-20T11:45:23Z</time>
      </trkpt>
      <trkpt lat="42.91108" lon="1.64337">
        <ele>459.17</ele>
        <time>2012-12-20T11:45:44Z</time>
      </trkpt>
      <trkpt lat="42.91036" lon="1.64327">
        <ele>459.65</ele>
        <time>2012-12-20T11:45:58Z</time>
      </trkpt>
      <trkpt lat="42.90951" lon="1.64307">
        <ele>460.13</ele>
        <time>2012-12-20T11:46:15Z</time>
      </trkpt>
      <trkpt lat="42.90935" lon="1.64301">
        <ele>460.61</ele>
        <time>2012-12-20T11:46:18Z</time>
      </trkpt>
      <trkpt lat="42.90905" lon="1.64285">
        <ele>461.57</ele>
        <time>2012-12-20T11:46:24Z</time>
      </trkpt>
      <trkpt lat="42.90868" lon="1.64263">
        <ele>462.05</ele>
        <time>2012-12-20T11:46:32Z</time>
      </trkpt>
      <trkpt lat="42.90842" lon="1.64246">
        <ele>463.01</ele>
        <time>2012-12-20T11:46:38Z</time>
      </trkpt>
      <trkpt lat="42.90758" lon="1.64237">
        <ele>465.9</ele>
        <time>2012-12-20T11:46:57Z</time>
      </trkpt>
      <trkpt lat="42.90674" lon="1.64256">
        <ele>466.38</ele>
        <time>2012-12-20T11:47:13Z</time>
      </trkpt>
      <trkpt lat="42.90578" lon="1.64243">
        <ele>467.82</ele>
        <time>2012-12-20T11:47:32Z</time>
      </trkpt>
      <trkpt lat="42.90484" lon="1.64212">
        <ele>468.3</ele>
        <time>2012-12-20T11:47:50Z</time>
      </trkpt>
      <trkpt lat="42.90377" lon="1.6415">
        <ele>469.26</ele>
        <time>2012-12-20T11:48:12Z</time>
      </trkpt>
      <trkpt lat="42.903" lon="1.64097">
        <ele>471.66</ele>
        <time>2012-12-20T11:48:32Z</time>
      </trkpt>
      <trkpt lat="42.90127" lon="1.63994">
        <ele>474.07</ele>
        <time>2012-12-20T11:49:11Z</time>
      </trkpt>
      <trkpt lat="42.90008" lon="1.63929">
        <ele>476.95</ele>
        <time>2012-12-20T11:49:40Z</time>
      </trkpt>
      <trkpt lat="42.89957" lon="1.63901">
        <ele>480.32</ele>
        <time>2012-12-20T11:49:55Z</time>
      </trkpt>
      <trkpt lat="42.89882" lon="1.63863">
        <ele>483.2</ele>
        <time>2012-12-20T11:50:17Z</time>
      </trkpt>
      <trkpt lat="42.89748" lon="1.63806">
        <ele>484.16</ele>
        <time>2012-12-20T11:50:49Z</time>
      </trkpt>
      <trkpt lat="42.89588" lon="1.63738">
        <ele>486.56</ele>
        <time>2012-12-20T11:51:26Z</time>
      </trkpt>
      <trkpt lat="42.89502" lon="1.63702">
        <ele>489.93</ele>
        <time>2012-12-20T11:51:48Z</time>
      </trkpt>
      <trkpt lat="42.89431" lon="1.63674">
        <ele>492.81</ele>
        <time>2012-12-20T11:52:07Z</time>
      </trkpt>
      <trkpt lat="42.89337" lon="1.6362">
        <ele>494.74</ele>
        <time>2012-12-20T11:52:32Z</time>
      </trkpt>
      <trkpt lat="42.89228" lon="1.63544">
        <ele>495.7</ele>
        <time>2012-12-20T11:52:59Z</time>
      </trkpt>
      <trkpt lat="42.89132" lon="1.63475">
        <ele>493.77</ele>
        <time>2012-12-20T11:53:16Z</time>
      </trkpt>
      <trkpt lat="42.89027" lon="1.6339">
        <ele>493.77</ele>
        <time>2012-12-20T11:53:36Z</time>
      </trkpt>
      <trkpt lat="42.88909" lon="1.63316">
        <ele>491.85</ele>
        <time>2012-12-20T11:53:56Z</time>
      </trkpt>
      <trkpt lat="42.88815" lon="1.63302">
        <ele>488.49</ele>
        <time>2012-12-20T11:54:06Z</time>
      </trkpt>
      <trkpt lat="42.88763" lon="1.63298">
        <ele>485.6</ele>
        <time>2012-12-20T11:54:11Z</time>
      </trkpt>
      <trkpt lat="42.88719" lon="1.63285">
        <ele>482.72</ele>
        <time>2012-12-20T11:54:15Z</time>
      </trkpt>
      <trkpt lat="42.88708" lon="1.63279">
        <ele>481.76</ele>
        <time>2012-12-20T11:54:16Z</time>
      </trkpt>
      <trkpt lat="42.88578" lon="1.63176">
        <ele>477.91</ele>
        <time>2012-12-20T11:54:30Z</time>
      </trkpt>
      <trkpt lat="42.88346" lon="1.63022">
        <ele>475.03</ele>
        <time>2012-12-20T11:54:56Z</time>
      </trkpt>
      <trkpt lat="42.88211" lon="1.62938">
        <ele>473.11</ele>
        <time>2012-12-20T11:55:12Z</time>
      </trkpt>
      <trkpt lat="42.88121" lon="1.62925">
        <ele>474.07</ele>
        <time>2012-12-20T11:55:24Z</time>
      </trkpt>
      <trkpt lat="42.88093" lon="1.62925">
        <ele>475.03</ele>
        <time>2012-12-20T11:55:29Z</time>
      </trkpt>
      <trkpt lat="42.87984" lon="1.62921">
        <ele>476.95</ele>
        <time>2012-12-20T11:55:49Z</time>
      </trkpt>
      <trkpt lat="42.87969" lon="1.62923">
        <ele>477.43</ele>
        <time>2012-12-20T11:55:52Z</time>
      </trkpt>
      <trkpt lat="42.87921" lon="1.6292">
        <ele>477.91</ele>
        <time>2012-12-20T11:56:01Z</time>
      </trkpt>
      <trkpt lat="42.87847" lon="1.62911">
        <ele>477.43</ele>
        <time>2012-12-20T11:56:14Z</time>
      </trkpt>
      <trkpt lat="42.8782" lon="1.62898">
        <ele>476.47</ele>
        <time>2012-12-20T11:56:18Z</time>
      </trkpt>
      <trkpt lat="42.87786" lon="1.62869">
        <ele>474.55</ele>
        <time>2012-12-20T11:56:23Z</time>
      </trkpt>
      <trkpt lat="42.87653" lon="1.62758">
        <ele>472.63</ele>
        <time>2012-12-20T11:56:43Z</time>
      </trkpt>
      <trkpt lat="42.87562" lon="1.62679">
        <ele>473.11</ele>
        <time>2012-12-20T11:56:58Z</time>
      </trkpt>
      <trkpt lat="42.87476" lon="1.62606">
        <ele>473.11</ele>
        <time>2012-12-20T11:57:11Z</time>
      </trkpt>
      <trkpt lat="42.87339" lon="1.62488">
        <ele>472.63</ele>
        <time>2012-12-20T11:57:34Z</time>
      </trkpt>
      <trkpt lat="42.87233" lon="1.62386">
        <ele>472.63</ele>
        <time>2012-12-20T11:57:53Z</time>
      </trkpt>
      <trkpt lat="42.87168" lon="1.62322">
        <ele>473.11</ele>
        <time>2012-12-20T11:58:06Z</time>
      </trkpt>
      <trkpt lat="42.8708" lon="1.62231">
        <ele>474.55</ele>
        <time>2012-12-20T11:58:25Z</time>
      </trkpt>
      <trkpt lat="42.87004" lon="1.62143">
        <ele>475.99</ele>
        <time>2012-12-20T11:58:44Z</time>
      </trkpt>
      <trkpt lat="42.86968" lon="1.62068">
        <ele>476.95</ele>
        <time>2012-12-20T11:58:57Z</time>
      </trkpt>
      <trkpt lat="42.86906" lon="1.61938">
        <ele>476.95</ele>
        <time>2012-12-20T11:59:16Z</time>
      </trkpt>
      <trkpt lat="42.86836" lon="1.61824">
        <ele>473.59</ele>
        <time>2012-12-20T11:59:32Z</time>
      </trkpt>
      <trkpt lat="42.86761" lon="1.61684">
        <ele>470.22</ele>
        <time>2012-12-20T11:59:47Z</time>
      </trkpt>
      <trkpt lat="42.867" lon="1.6157">
        <ele>467.34</ele>
        <time>2012-12-20T11:59:59Z</time>
      </trkpt>
      <trkpt lat="42.8668" lon="1.6155">
        <ele>466.86</ele>
        <time>2012-12-20T12:00:02Z</time>
      </trkpt>
      <trkpt lat="42.86658" lon="1.61535">
        <ele>466.38</ele>
        <time>2012-12-20T12:00:05Z</time>
      </trkpt>
      <trkpt lat="42.86608" lon="1.61452">
        <ele>462.53</ele>
        <time>2012-12-20T12:00:15Z</time>
      </trkpt>
      <trkpt lat="42.8657" lon="1.61359">
        <ele>459.17</ele>
        <time>2012-12-20T12:00:27Z</time>
      </trkpt>
      <trkpt lat="42.86569" lon="1.61344">
        <ele>456.28</ele>
        <time>2012-12-20T12:00:40Z</time>
      </trkpt>
      <trkpt lat="42.86576" lon="1.61347">
        <ele>455.8</ele>
        <time>2012-12-20T12:06:06Z</time>
      </trkpt>
      <trkpt lat="42.86576" lon="1.61347">
        <ele>455.8</ele>
        <time>2012-12-20T12:06:13Z</time>
      </trkpt>
      <trkpt lat="42.86552" lon="1.613">
        <ele>455.8</ele>
        <time>2012-12-20T12:06:28Z</time>
      </trkpt>
      <trkpt lat="42.86522" lon="1.6121">
        <ele>456.28</ele>
        <time>2012-12-20T12:06:46Z</time>
      </trkpt>
      <trkpt lat="42.8648" lon="1.61036">
        <ele>457.72</ele>
        <time>2012-12-20T12:07:10Z</time>
      </trkpt>
      <trkpt lat="42.86433" lon="1.60846">
        <ele>461.09</ele>
        <time>2012-12-20T12:07:37Z</time>
      </trkpt>
      <trkpt lat="42.864" lon="1.60758">
        <ele>463.49</ele>
        <time>2012-12-20T12:07:55Z</time>
      </trkpt>
      <trkpt lat="42.86378" lon="1.6071">
        <ele>464.93</ele>
        <time>2012-12-20T12:08:07Z</time>
      </trkpt>
      <trkpt lat="42.86348" lon="1.60649">
        <ele>466.38</ele>
        <time>2012-12-20T12:08:21Z</time>
      </trkpt>
      <trkpt lat="42.86316" lon="1.60577">
        <ele>467.82</ele>
        <time>2012-12-20T12:08:36Z</time>
      </trkpt>
      <trkpt lat="42.8627" lon="1.6052">
        <ele>468.78</ele>
        <time>2012-12-20T12:08:51Z</time>
      </trkpt>
      <trkpt lat="42.86196" lon="1.60473">
        <ele>469.26</ele>
        <time>2012-12-20T12:09:08Z</time>
      </trkpt>
      <trkpt lat="42.86097" lon="1.60407">
        <ele>467.82</ele>
        <time>2012-12-20T12:09:26Z</time>
      </trkpt>
      <trkpt lat="42.86003" lon="1.60299">
        <ele>464.93</ele>
        <time>2012-12-20T12:09:42Z</time>
      </trkpt>
      <trkpt lat="42.85924" lon="1.60231">
        <ele>461.57</ele>
        <time>2012-12-20T12:09:53Z</time>
      </trkpt>
      <trkpt lat="42.85813" lon="1.60182">
        <ele>458.69</ele>
        <time>2012-12-20T12:10:08Z</time>
      </trkpt>
      <trkpt lat="42.85648" lon="1.60124">
        <ele>459.17</ele>
        <time>2012-12-20T12:10:35Z</time>
      </trkpt>
      <trkpt lat="42.85555" lon="1.60157">
        <ele>459.17</ele>
        <time>2012-12-20T12:10:52Z</time>
      </trkpt>
      <trkpt lat="42.85435" lon="1.60216">
        <ele>459.17</ele>
        <time>2012-12-20T12:11:15Z</time>
      </trkpt>
      <trkpt lat="42.85317" lon="1.60274">
        <ele>460.13</ele>
        <time>2012-12-20T12:11:40Z</time>
      </trkpt>
      <trkpt lat="42.85303" lon="1.60281">
        <ele>460.13</ele>
        <time>2012-12-20T12:11:43Z</time>
      </trkpt>
      <trkpt lat="42.852" lon="1.60334">
        <ele>460.61</ele>
        <time>2012-12-20T12:12:05Z</time>
      </trkpt>
      <trkpt lat="42.85128" lon="1.60382">
        <ele>461.57</ele>
        <time>2012-12-20T12:12:22Z</time>
      </trkpt>
      <trkpt lat="42.85041" lon="1.60427">
        <ele>463.01</ele>
        <time>2012-12-20T12:12:41Z</time>
      </trkpt>
      <trkpt lat="42.84924" lon="1.60489">
        <ele>464.45</ele>
        <time>2012-12-20T12:13:07Z</time>
      </trkpt>
      <trkpt lat="42.84842" lon="1.60531">
        <ele>464.93</ele>
        <time>2012-12-20T12:13:25Z</time>
      </trkpt>
      <trkpt lat="42.84815" lon="1.60545">
        <ele>464.93</ele>
        <time>2012-12-20T12:13:32Z</time>
      </trkpt>
      <trkpt lat="42.84738" lon="1.60587">
        <ele>465.9</ele>
        <time>2012-12-20T12:13:51Z</time>
      </trkpt>
      <trkpt lat="42.84709" lon="1.60571">
        <ele>466.38</ele>
        <time>2012-12-20T12:14:00Z</time>
      </trkpt>
      <trkpt lat="42.84694" lon="1.60533">
        <ele>465.9</ele>
        <time>2012-12-20T12:14:09Z</time>
      </trkpt>
      <trkpt lat="42.84698" lon="1.60507">
        <ele>465.9</ele>
        <time>2012-12-20T12:14:13Z</time>
      </trkpt>
      <trkpt lat="42.84736" lon="1.60404">
        <ele>463.97</ele>
        <time>2012-12-20T12:14:28Z</time>
      </trkpt>
      <trkpt lat="42.84757" lon="1.60361">
        <ele>463.01</ele>
        <time>2012-12-20T12:14:35Z</time>
      </trkpt>
      <trkpt lat="42.84759" lon="1.60327">
        <ele>463.01</ele>
        <time>2012-12-20T12:14:41Z</time>
      </trkpt>
      <trkpt lat="42.84745" lon="1.60246">
        <ele>462.53</ele>
        <time>2012-12-20T12:14:59Z</time>
      </trkpt>
      <trkpt lat="42.84725" lon="1.6015">
        <ele>463.01</ele>
        <time>2012-12-20T12:15:17Z</time>
      </trkpt>
      <trkpt lat="42.847" lon="1.601">
        <ele>462.53</ele>
        <time>2012-12-20T12:15:31Z</time>
      </trkpt>
      <trkpt lat="42.84687" lon="1.601">
        <ele>463.01</ele>
        <time>2012-12-20T12:15:35Z</time>
      </trkpt>
      <trkpt lat="42.84687" lon="1.60106">
        <ele>463.01</ele>
        <time>2012-12-20T12:15:39Z</time>
      </trkpt>
      <trkpt lat="42.84697" lon="1.60105">
        <ele>463.01</ele>
        <time>2012-12-20T12:15:42Z</time>
      </trkpt>
      <trkpt lat="42.84727" lon="1.60154">
        <ele>462.53</ele>
        <time>2012-12-20T12:15:56Z</time>
      </trkpt>
      <trkpt lat="42.8475" lon="1.60254">
        <ele>463.01</ele>
        <time>2012-12-20T12:16:15Z</time>
      </trkpt>
      <trkpt lat="42.84743" lon="1.60269">
        <ele>463.01</ele>
        <time>2012-12-20T12:16:19Z</time>
      </trkpt>
      <trkpt lat="42.8461" lon="1.60303">
        <ele>464.45</ele>
        <time>2012-12-20T12:16:50Z</time>
      </trkpt>
      <trkpt lat="42.84593" lon="1.60271">
        <ele>465.9</ele>
        <time>2012-12-20T12:16:59Z</time>
      </trkpt>
      <trkpt lat="42.84569" lon="1.60216">
        <ele>469.26</ele>
        <time>2012-12-20T12:17:17Z</time>
      </trkpt>
      <trkpt lat="42.84537" lon="1.60139">
        <ele>471.66</ele>
        <time>2012-12-20T12:17:43Z</time>
      </trkpt>
      <trkpt lat="42.84538" lon="1.601">
        <ele>471.66</ele>
        <time>2012-12-20T12:17:57Z</time>
      </trkpt>
      <trkpt lat="42.84581" lon="1.60065">
        <ele>470.7</ele>
        <time>2012-12-20T12:18:12Z</time>
      </trkpt>
      <trkpt lat="42.84651" lon="1.60011">
        <ele>467.82</ele>
        <time>2012-12-20T12:18:26Z</time>
      </trkpt>
      <trkpt lat="42.84727" lon="1.59982">
        <ele>464.45</ele>
        <time>2012-12-20T12:18:37Z</time>
      </trkpt>
      <trkpt lat="42.84836" lon="1.59964">
        <ele>463.49</ele>
        <time>2012-12-20T12:18:57Z</time>
      </trkpt>
      <trkpt lat="42.84982" lon="1.59936">
        <ele>463.49</ele>
        <time>2012-12-20T12:19:25Z</time>
      </trkpt>
      <trkpt lat="42.8499" lon="1.59934">
        <ele>463.01</ele>
        <time>2012-12-20T12:19:27Z</time>
      </trkpt>
      <trkpt lat="42.85012" lon="1.59925">
        <ele>462.53</ele>
        <time>2012-12-20T12:19:33Z</time>
      </trkpt>
      <trkpt lat="42.85016" lon="1.59872">
        <ele>463.01</ele>
        <time>2012-12-20T12:19:42Z</time>
      </trkpt>
      <trkpt lat="42.85058" lon="1.59754">
        <ele>465.9</ele>
        <time>2012-12-20T12:20:00Z</time>
      </trkpt>
      <trkpt lat="42.85108" lon="1.59611">
        <ele>468.78</ele>
        <time>2012-12-20T12:20:24Z</time>
      </trkpt>
      <trkpt lat="42.85158" lon="1.59472">
        <ele>471.66</ele>
        <time>2012-12-20T12:20:51Z</time>
      </trkpt>
      <trkpt lat="42.85186" lon="1.59395">
        <ele>474.55</ele>
        <time>2012-12-20T12:21:10Z</time>
      </trkpt>
      <trkpt lat="42.85213" lon="1.5932">
        <ele>477.91</ele>
        <time>2012-12-20T12:21:29Z</time>
      </trkpt>
      <trkpt lat="42.85254" lon="1.59198">
        <ele>480.8</ele>
        <time>2012-12-20T12:21:56Z</time>
      </trkpt>
      <trkpt lat="42.85289" lon="1.59166">
        <ele>481.28</ele>
        <time>2012-12-20T12:22:09Z</time>
      </trkpt>
      <trkpt lat="42.85305" lon="1.59157">
        <ele>480.8</ele>
        <time>2012-12-20T12:22:13Z</time>
      </trkpt>
      <trkpt lat="42.8533" lon="1.59107">
        <ele>480.8</ele>
        <time>2012-12-20T12:22:23Z</time>
      </trkpt>
      <trkpt lat="42.8533" lon="1.59095">
        <ele>480.8</ele>
        <time>2012-12-20T12:22:25Z</time>
      </trkpt>
      <trkpt lat="42.85311" lon="1.59044">
        <ele>481.28</ele>
        <time>2012-12-20T12:22:35Z</time>
      </trkpt>
      <trkpt lat="42.85318" lon="1.5898">
        <ele>482.24</ele>
        <time>2012-12-20T12:22:50Z</time>
      </trkpt>
      <trkpt lat="42.85355" lon="1.58908">
        <ele>482.72</ele>
        <time>2012-12-20T12:23:09Z</time>
      </trkpt>
      <trkpt lat="42.85361" lon="1.58906">
        <ele>482.72</ele>
        <time>2012-12-20T12:23:11Z</time>
      </trkpt>
      <trkpt lat="42.85394" lon="1.58915">
        <ele>480.8</ele>
        <time>2012-12-20T12:23:17Z</time>
      </trkpt>
      <trkpt lat="42.85462" lon="1.58939">
        <ele>478.39</ele>
        <time>2012-12-20T12:23:27Z</time>
      </trkpt>
      <trkpt lat="42.85517" lon="1.58957">
        <ele>479.84</ele>
        <time>2012-12-20T12:23:41Z</time>
      </trkpt>
      <trkpt lat="42.85534" lon="1.58963">
        <ele>480.8</ele>
        <time>2012-12-20T12:23:46Z</time>
      </trkpt>
      <trkpt lat="42.85554" lon="1.58939">
        <ele>482.72</ele>
        <time>2012-12-20T12:23:56Z</time>
      </trkpt>
      <trkpt lat="42.85578" lon="1.58894">
        <ele>483.68</ele>
        <time>2012-12-20T12:24:10Z</time>
      </trkpt>
      <trkpt lat="42.85584" lon="1.58875">
        <ele>484.16</ele>
        <time>2012-12-20T12:24:16Z</time>
      </trkpt>
      <trkpt lat="42.85583" lon="1.5887">
        <ele>483.68</ele>
        <time>2012-12-20T12:24:28Z</time>
      </trkpt>
      <trkpt lat="42.85583" lon="1.5887">
        <ele>483.2</ele>
        <time>2012-12-20T12:25:29Z</time>
      </trkpt>
    </trkseg>
  </trk>
</gpx>